KUVA

Details ICAO KUVA (UVA)
Name GARNER FLD
Region United States
Timezone America/Chicago (UTC-5.0)
Plans Departing 1
Arriving 5
Stats Elevation 942 ft / 287 m (AMSL)
Location 29.210375° -99.743072°
Runways 2
Magnetic Variation 4.865° E
Sunrise 2018-05-25 11:43:39 UTC / 2018-05-25 06:43:39 Local
Sunset 2018-05-26 01:31:06 UTC / 2018-05-25 20:31:06 Local
Advertisement - Login to hide

Runways

ID Width Length Bearing (true) Bearing (mag) Surface Threshold Offset Overrun Length
15 100 ft / 30 m 5,267 ft / 1,605 m 155.07° 150.21° Asphalt 0 ft / 0 m 0 ft / 0 m
15C 75 ft / 23 m 3,308 ft / 1,008 m 155.12° 150.26° Grass 0 ft / 0 m 0 ft / 0 m
33 100 ft / 30 m 5,267 ft / 1,605 m 335.08° 330.22° Asphalt 0 ft / 0 m 0 ft / 0 m
33C 75 ft / 23 m 3,308 ft / 1,008 m 335.13° 330.27° Grass 0 ft / 0 m 0 ft / 0 m

Map

Weather


0- 5 10 15 20 25 30 35+ Temperature / ° C

Clouds and Precipitation
Forecast for 2018-05-26 00:00 UTC. Updated 3 hours ago

Ground ~20,000 ft ~40,000 ft Winds

METAR

KUVA 260215Z AUTO 09004KT 10SM CLR 28/20 A2986 RMK AO2 T02810195

TAF

Not found

Frequencies

Recorded 124.17 MHz AWOS 3
Unicom 122.80 MHz CTAF/UNICOM
Warning: Do not use this data for real-world aviation or navigation. No guarantee of current accuracy is given.